sensor_id;sensor_type;location;lat;lon;timestamp;pressure;altitude;pressure_sealevel;temperature;humidity
68988;BME280;56038;46.080;11.116;2022-12-01T00:04:07;99637.09;;;3.48;77.24
68988;BME280;56038;46.080;11.116;2022-12-01T00:09:10;99637.09;;;3.44;77.46
68988;BME280;56038;46.080;11.116;2022-12-01T00:14:29;99635.38;;;3.44;77.18
68988;BME280;56038;46.080;11.116;2022-12-01T00:19:31;99634.38;;;3.60;75.85
68988;BME280;56038;46.080;11.116;2022-12-01T00:24:34;99634.56;;;3.39;76.56
68988;BME280;56038;46.080;11.116;2022-12-01T00:29:36;99630.19;;;3.49;76.28
68988;BME280;56038;46.080;11.116;2022-12-01T00:34:38;99624.13;;;3.51;75.69
68988;BME280;56038;46.080;11.116;2022-12-01T00:39:41;99621.50;;;3.57;75.58
68988;BME280;56038;46.080;11.116;2022-12-01T00:44:43;99623.22;;;3.58;75.74
68988;BME280;56038;46.080;11.116;2022-12-01T00:49:44;99622.31;;;3.66;74.76
68988;BME280;56038;46.080;11.116;2022-12-01T00:54:47;99628.31;;;3.68;74.73
68988;BME280;56038;46.080;11.116;2022-12-01T00:59:49;99635.22;;;3.67;74.69
68988;BME280;56038;46.080;11.116;2022-12-01T01:04:51;99637.75;;;3.70;74.66
68988;BME280;56038;46.080;11.116;2022-12-01T01:09:54;99645.56;;;3.66;74.69
68988;BME280;56038;46.080;11.116;2022-12-01T01:14:56;99652.53;;;3.53;75.52
68988;BME280;56038;46.080;11.116;2022-12-01T01:19:58;99643.84;;;3.60;75.26
68988;BME280;56038;46.080;11.116;2022-12-01T01:25:01;99641.28;;;3.63;74.97
68988;BME280;56038;46.080;11.116;2022-12-01T01:30:15;99637.91;;;3.53;75.45
68988;BME280;56038;46.080;11.116;2022-12-01T01:35:57;99643.13;;;3.41;75.61
68988;BME280;56038;46.080;11.116;2022-12-01T01:41:01;99645.06;;;3.10;77.33
68988;BME280;56038;46.080;11.116;2022-12-01T01:46:03;99645.94;;;3.06;77.12
68988;BME280;56038;46.080;11.116;2022-12-01T01:51:06;99654.41;;;3.29;75.92
68988;BME280;56038;46.080;11.116;2022-12-01T01:56:09;99652.63;;;3.41;75.58
68988;BME280;56038;46.080;11.116;2022-12-01T02:01:11;99652.59;;;3.42;74.92
68988;BME280;56038;46.080;11.116;2022-12-01T02:06:13;99644.00;;;3.40;75.28
68988;BME280;56038;46.080;11.116;2022-12-01T02:11:37;99644.91;;;3.35;75.36
68988;BME280;56038;46.080;11.116;2022-12-01T02:16:52;99644.09;;;3.25;75.91
68988;BME280;56038;46.080;11.116;2022-12-01T02:22:06;99642.41;;;3.22;75.82
68988;BME280;56038;46.080;11.116;2022-12-01T02:27:27;99652.78;;;3.16;75.78
68988;BME280;56038;46.080;11.116;2022-12-01T02:32:46;99650.13;;;3.24;75.84
68988;BME280;56038;46.080;11.116;2022-12-01T02:37:57;99650.13;;;3.24;75.41
68988;BME280;56038;46.080;11.116;2022-12-01T02:43:03;99647.63;;;3.12;75.52
68988;BME280;56038;46.080;11.116;2022-12-01T02:48:13;99639.00;;;3.17;75.93
68988;BME280;56038;46.080;11.116;2022-12-01T02:53:17;99647.66;;;3.07;76.08
68988;BME280;56038;46.080;11.116;2022-12-01T02:58:20;99645.97;;;3.02;76.17
68988;BME280;56038;46.080;11.116;2022-12-01T03:03:32;99643.41;;;2.95;76.16
68988;BME280;56038;46.080;11.116;2022-12-01T03:08:47;99628.91;;;2.76;77.10
68988;BME280;56038;46.080;11.116;2022-12-01T03:13:56;99632.31;;;2.77;77.09
68988;BME280;56038;46.080;11.116;2022-12-01T03:19:06;99629.78;;;2.72;77.22
68988;BME280;56038;46.080;11.116;2022-12-01T03:24:13;99636.66;;;2.73;77.02
68988;BME280;56038;46.080;11.116;2022-12-01T03:29:20;99625.41;;;2.86;76.72
68988;BME280;56038;46.080;11.116;2022-12-01T03:34:28;99632.31;;;2.84;76.88
68988;BME280;56038;46.080;11.116;2022-12-01T03:39:35;99621.19;;;2.73;76.67
68988;BME280;56038;46.080;11.116;2022-12-01T03:44:42;99626.38;;;2.59;77.65
68988;BME280;56038;46.080;11.116;2022-12-01T03:49:49;99630.66;;;2.65;76.91
68988;BME280;56038;46.080;11.116;2022-12-01T03:54:57;99629.81;;;2.63;77.02
68988;BME280;56038;46.080;11.116;2022-12-01T04:00:00;99624.63;;;2.72;76.44
68988;BME280;56038;46.080;11.116;2022-12-01T04:05:05;99621.16;;;2.76;76.25
68988;BME280;56038;46.080;11.116;2022-12-01T04:10:08;99620.34;;;2.71;76.38
68988;BME280;56038;46.080;11.116;2022-12-01T04:15:11;99627.19;;;2.74;76.32
68988;BME280;56038;46.080;11.116;2022-12-01T04:20:15;99628.03;;;2.74;76.28
68988;BME280;56038;46.080;11.116;2022-12-01T04:25:17;99628.06;;;2.71;76.21
68988;BME280;56038;46.080;11.116;2022-12-01T04:30:19;99632.38;;;2.69;76.54
68988;BME280;56038;46.080;11.116;2022-12-01T04:35:22;99627.28;;;2.45;77.67
68988;BME280;56038;46.080;11.116;2022-12-01T04:40:24;99631.59;;;2.46;77.66
68988;BME280;56038;46.080;11.116;2022-12-01T04:45:26;99629.84;;;2.57;77.11
68988;BME280;56038;46.080;11.116;2022-12-01T04:50:29;99626.47;;;2.39;77.73
68988;BME280;56038;46.080;11.116;2022-12-01T04:55:35;99617.81;;;2.56;76.97
68988;BME280;56038;46.080;11.116;2022-12-01T05:00:38;99617.81;;;2.54;77.26
68988;BME280;56038;46.080;11.116;2022-12-01T05:05:42;99624.69;;;2.51;77.10
68988;BME280;56038;46.080;11.116;2022-12-01T05:10:44;99628.97;;;2.56;77.24
68988;BME280;56038;46.080;11.116;2022-12-01T05:15:46;99634.19;;;2.43;77.96
68988;BME280;56038;46.080;11.116;2022-12-01T05:20:49;99632.41;;;2.51;77.68
68988;BME280;56038;46.080;11.116;2022-12-01T05:26:01;99631.59;;;2.43;78.01
68988;BME280;56038;46.080;11.116;2022-12-01T05:31:03;99633.34;;;2.34;77.93
68988;BME280;56038;46.080;11.116;2022-12-01T05:36:07;99629.06;;;2.29;78.11
68988;BME280;56038;46.080;11.116;2022-12-01T05:41:09;99632.47;;;2.34;77.68
68988;BME280;56038;46.080;11.116;2022-12-01T05:46:11;99641.94;;;2.33;77.62
68988;BME280;56038;46.080;11.116;2022-12-01T05:51:15;99635.94;;;2.19;77.77
68988;BME280;56038;46.080;11.116;2022-12-01T05:56:17;99637.66;;;2.29;77.48
68988;BME280;56038;46.080;11.116;2022-12-01T06:01:19;99634.22;;;2.26;77.68
68988;BME280;56038;46.080;11.116;2022-12-01T06:06:22;99637.72;;;1.97;79.19
68988;BME280;56038;46.080;11.116;2022-12-01T06:11:24;99640.28;;;2.08;78.54
68988;BME280;56038;46.080;11.116;2022-12-01T06:16:26;99640.25;;;2.05;78.72
68988;BME280;56038;46.080;11.116;2022-12-01T06:21:30;99640.28;;;2.08;78.51
68988;BME280;56038;46.080;11.116;2022-12-01T06:26:31;99648.88;;;2.10;78.35
68988;BME280;56038;46.080;11.116;2022-12-01T06:31:33;99644.59;;;1.69;80.22
68988;BME280;56038;46.080;11.116;2022-12-01T06:36:36;99656.59;;;1.89;79.17
68988;BME280;56038;46.080;11.116;2022-12-01T06:41:38;99649.72;;;2.04;78.47
68988;BME280;56038;46.080;11.116;2022-12-01T06:46:40;99666.03;;;2.14;78.06
68988;BME280;56038;46.080;11.116;2022-12-01T06:51:44;99666.03;;;2.17;78.09
68988;BME280;56038;46.080;11.116;2022-12-01T06:56:45;99666.03;;;2.23;77.63
68988;BME280;56038;46.080;11.116;2022-12-01T07:01:47;99673.75;;;2.22;77.77
68988;BME280;56038;46.080;11.116;2022-12-01T07:06:50;99678.91;;;2.20;77.71
68988;BME280;56038;46.080;11.116;2022-12-01T07:11:52;99684.06;;;2.19;77.49
68988;BME280;56038;46.080;11.116;2022-12-01T07:16:54;99690.94;;;2.12;78.74
68988;BME280;56038;46.080;11.116;2022-12-01T07:21:57;99696.09;;;2.17;78.00
68988;BME280;56038;46.080;11.116;2022-12-01T07:26:59;99694.34;;;2.19;78.26
68988;BME280;56038;46.080;11.116;2022-12-01T07:32:00;99703.81;;;2.27;77.74
68988;BME280;56038;46.080;11.116;2022-12-01T07:37:04;99709.81;;;2.31;77.48
68988;BME280;56038;46.080;11.116;2022-12-01T07:42:05;99714.97;;;2.28;77.89
68988;BME280;56038;46.080;11.116;2022-12-01T07:47:07;99711.56;;;2.12;78.89
68988;BME280;56038;46.080;11.116;2022-12-01T07:52:10;99719.28;;;2.12;79.02
68988;BME280;56038;46.080;11.116;2022-12-01T07:57:12;99723.56;;;2.33;78.33
68988;BME280;56038;46.080;11.116;2022-12-01T08:02:14;99713.22;;;2.50;77.87
68988;BME280;56038;46.080;11.116;2022-12-01T08:07:18;99720.06;;;2.64;77.69
68988;BME280;56038;46.080;11.116;2022-12-01T08:12:19;99722.59;;;2.81;76.96
68988;BME280;56038;46.080;11.116;2022-12-01T08:17:21;99727.72;;;2.89;77.17
68988;BME280;56038;46.080;11.116;2022-12-01T08:22:24;99738.88;;;2.92;76.84
68988;BME280;56038;46.080;11.116;2022-12-01T08:27:26;99735.41;;;2.98;76.45
68988;BME280;56038;46.080;11.116;2022-12-01T08:32:28;99732.00;;;2.94;76.60
68988;BME280;56038;46.080;11.116;2022-12-01T08:37:31;99732.03;;;2.87;76.48
68988;BME280;56038;46.080;11.116;2022-12-01T08:42:33;99728.59;;;2.86;77.29
68988;BME280;56038;46.080;11.116;2022-12-01T08:47:34;99738.06;;;2.84;77.21
68988;BME280;56038;46.080;11.116;2022-12-01T08:52:38;99740.56;;;2.99;76.61
68988;BME280;56038;46.080;11.116;2022-12-01T08:57:39;99741.47;;;2.95;77.11
68988;BME280;56038;46.080;11.116;2022-12-01T09:02:41;99736.28;;;3.02;76.67
68988;BME280;56038;46.080;11.116;2022-12-01T09:07:44;99731.91;;;3.20;76.12
68988;BME280;56038;46.080;11.116;2022-12-01T09:13:06;99736.94;;;3.48;75.77
68988;BME280;56038;46.080;11.116;2022-12-01T09:18:08;99741.13;;;3.66;75.24
68988;BME280;56038;46.080;11.116;2022-12-01T09:23:11;99735.69;;;4.02;74.56
68988;BME280;56038;46.080;11.116;2022-12-01T09:28:13;99731.28;;;4.16;73.12
68988;BME280;56038;46.080;11.116;2022-12-01T09:33:15;99737.94;;;4.39;71.94
68988;BME280;56038;46.080;11.116;2022-12-01T09:38:18;99726.66;;;5.24;70.55
68988;BME280;56038;46.080;11.116;2022-12-01T09:43:24;99715.31;;;8.45;63.27
68988;BME280;56038;46.080;11.116;2022-12-01T09:48:30;99704.38;;;10.85;56.45
68988;BME280;56038;46.080;11.116;2022-12-01T09:53:34;99695.94;;;11.25;52.11
68988;BME280;56038;46.080;11.116;2022-12-01T09:58:36;99689.50;;;12.82;48.79
68988;BME280;56038;46.080;11.116;2022-12-01T10:03:42;99683.78;;;14.58;42.41
68988;BME280;56038;46.080;11.116;2022-12-01T10:08:53;99677.75;;;16.01;38.55
68988;BME280;56038;46.080;11.116;2022-12-01T10:13:58;99662.41;;;16.96;38.15
68988;BME280;56038;46.080;11.116;2022-12-01T10:19:04;99662.03;;;12.91;44.58
68988;BME280;56038;46.080;11.116;2022-12-01T10:24:28;99651.22;;;13.72;44.10
68988;BME280;56038;46.080;11.116;2022-12-01T10:29:40;99638.16;;;14.92;40.51
68988;BME280;56038;46.080;11.116;2022-12-01T10:34:46;99630.44;;;15.05;40.71
68988;BME280;56038;46.080;11.116;2022-12-01T10:39:51;99626.94;;;14.03;43.30
68988;BME280;56038;46.080;11.116;2022-12-01T10:44:56;99623.88;;;13.42;42.90
68988;BME280;56038;46.080;11.116;2022-12-01T10:50:02;99609.97;;;14.11;43.27
68988;BME280;56038;46.080;11.116;2022-12-01T10:55:26;99606.41;;;19.51;32.59
68988;BME280;56038;46.080;11.116;2022-12-01T11:00:32;99601.13;;;16.62;37.00
68988;BME280;56038;46.080;11.116;2022-12-01T11:05:38;99604.72;;;17.04;36.07
68988;BME280;56038;46.080;11.116;2022-12-01T11:10:47;99582.53;;;19.99;30.45
68988;BME280;56038;46.080;11.116;2022-12-01T11:15:51;99577.09;;;21.68;27.74
68988;BME280;56038;46.080;11.116;2022-12-01T11:21:05;99572.53;;;20.02;30.23
68988;BME280;56038;46.080;11.116;2022-12-01T11:26:13;99564.53;;;20.26;30.60
68988;BME280;56038;46.080;11.116;2022-12-01T11:31:15;99555.63;;;21.17;28.49
68988;BME280;56038;46.080;11.116;2022-12-01T11:36:21;99549.78;;;21.23;28.30
68988;BME280;56038;46.080;11.116;2022-12-01T11:41:28;99540.38;;;19.72;30.05
68988;BME280;56038;46.080;11.116;2022-12-01T11:46:33;99536.25;;;17.42;34.34
68988;BME280;56038;46.080;11.116;2022-12-01T11:51:36;99526.53;;;20.15;29.51
68988;BME280;56038;46.080;11.116;2022-12-01T11:56:40;99521.34;;;21.46;27.56
68988;BME280;56038;46.080;11.116;2022-12-01T12:01:54;99518.91;;;19.40;31.19
68988;BME280;56038;46.080;11.116;2022-12-01T12:07:05;99515.19;;;22.50;25.98
68988;BME280;56038;46.080;11.116;2022-12-01T12:12:22;99516.41;;;24.87;23.05
68988;BME280;56038;46.080;11.116;2022-12-01T12:28:51;99496.81;;;19.52;29.04
68988;BME280;56038;46.080;11.116;2022-12-01T12:34:20;99499.03;;;16.07;34.81
68988;BME280;56038;46.080;11.116;2022-12-01T12:39:40;99492.59;;;14.11;40.73
68988;BME280;56038;46.080;11.116;2022-12-01T12:44:48;99484.56;;;13.64;41.17
68988;BME280;56038;46.080;11.116;2022-12-01T12:50:00;99488.31;;;12.69;43.34
68988;BME280;56038;46.080;11.116;2022-12-01T12:55:12;99486.56;;;12.50;43.92
68988;BME280;56038;46.080;11.116;2022-12-01T13:00:19;99473.59;;;11.69;46.67
68988;BME280;56038;46.080;11.116;2022-12-01T13:05:26;99468.53;;;11.64;46.50
68988;BME280;56038;46.080;11.116;2022-12-01T13:10:34;99461.22;;;11.10;48.54
68988;BME280;56038;46.080;11.116;2022-12-01T13:15:39;99464.16;;;11.45;46.47
68988;BME280;56038;46.080;11.116;2022-12-01T13:20:42;99455.03;;;11.33;46.77
68988;BME280;56038;46.080;11.116;2022-12-01T13:25:47;99451.41;;;10.95;48.70
68988;BME280;56038;46.080;11.116;2022-12-01T13:31:03;99449.72;;;10.27;51.49
68988;BME280;56038;46.080;11.116;2022-12-01T13:36:08;99441.84;;;10.03;51.43
68988;BME280;56038;46.080;11.116;2022-12-01T13:41:21;99441.59;;;9.86;51.47
68988;BME280;56038;46.080;11.116;2022-12-01T13:46:27;99436.03;;;9.72;51.99
68988;BME280;56038;46.080;11.116;2022-12-01T13:57:11;99435.63;;;9.34;53.09
68988;BME280;56038;46.080;11.116;2022-12-01T14:02:18;99428.94;;;9.25;53.15
68988;BME280;56038;46.080;11.116;2022-12-01T14:07:34;99420.69;;;9.13;54.83
68988;BME280;56038;46.080;11.116;2022-12-01T14:12:37;99417.78;;;8.95;56.47
68988;BME280;56038;46.080;11.116;2022-12-01T14:17:43;99423.50;;;8.80;55.97
68988;BME280;56038;46.080;11.116;2022-12-01T14:22:47;99431.78;;;8.65;57.27
68988;BME280;56038;46.080;11.116;2022-12-01T14:28:03;99429.44;;;8.57;58.15
68988;BME280;56038;46.080;11.116;2022-12-01T14:33:52;99430.72;;;8.44;58.19
68988;BME280;56038;46.080;11.116;2022-12-01T14:39:00;99424.38;;;8.23;59.14
68988;BME280;56038;46.080;11.116;2022-12-01T14:44:06;99427.38;;;8.09;59.16
68988;BME280;56038;46.080;11.116;2022-12-01T14:49:16;99424.19;;;8.00;59.10
68988;BME280;56038;46.080;11.116;2022-12-01T14:54:24;99433.88;;;7.95;58.43
68988;BME280;56038;46.080;11.116;2022-12-01T14:59:27;99435.22;;;7.78;59.45
68988;BME280;56038;46.080;11.116;2022-12-01T15:04:31;99429.41;;;7.69;59.96
68988;BME280;56038;46.080;11.116;2022-12-01T15:09:33;99443.38;;;7.65;61.13
68988;BME280;56038;46.080;11.116;2022-12-01T15:14:37;99443.88;;;7.46;61.64
68988;BME280;56038;46.080;11.116;2022-12-01T15:19:41;99452.72;;;7.39;61.42
68988;BME280;56038;46.080;11.116;2022-12-01T15:24:43;99444.31;;;7.30;61.67
68988;BME280;56038;46.080;11.116;2022-12-01T15:29:46;99458.25;;;7.26;61.94
68988;BME280;56038;46.080;11.116;2022-12-01T15:34:52;99454.28;;;7.12;62.06
68988;BME280;56038;46.080;11.116;2022-12-01T15:39:55;99457.00;;;7.06;62.19
68988;BME280;56038;46.080;11.116;2022-12-01T15:45:03;99452.03;;;6.99;63.01
68988;BME280;56038;46.080;11.116;2022-12-01T15:50:28;99456.56;;;6.89;62.90
68988;BME280;56038;46.080;11.116;2022-12-01T15:55:34;99452.47;;;6.80;63.47
68988;BME280;56038;46.080;11.116;2022-12-01T16:00:36;99460.28;;;6.77;63.17
68988;BME280;56038;46.080;11.116;2022-12-01T16:05:43;99457.97;;;6.67;63.90
68988;BME280;56038;46.080;11.116;2022-12-01T16:10:45;99458.91;;;6.63;63.63
68988;BME280;56038;46.080;11.116;2022-12-01T16:15:47;99458.34;;;6.50;64.33
68988;BME280;56038;46.080;11.116;2022-12-01T16:20:50;99454.09;;;6.47;64.60
68988;BME280;56038;46.080;11.116;2022-12-01T16:25:52;99461.94;;;6.43;65.11
68988;BME280;56038;46.080;11.116;2022-12-01T16:30:54;99460.44;;;6.34;65.34
68988;BME280;56038;46.080;11.116;2022-12-01T16:35:58;99465.84;;;6.23;65.77
68988;BME280;56038;46.080;11.116;2022-12-01T16:41:01;99464.22;;;6.18;65.54
68988;BME280;56038;46.080;11.116;2022-12-01T16:46:14;99479.00;;;6.13;66.34
68988;BME280;56038;46.080;11.116;2022-12-01T16:51:18;99487.16;;;5.94;67.36
68988;BME280;56038;46.080;11.116;2022-12-01T16:56:20;99491.56;;;5.91;66.49
68988;BME280;56038;46.080;11.116;2022-12-01T17:01:21;99491.72;;;5.80;66.80
68988;BME280;56038;46.080;11.116;2022-12-01T17:06:25;99490.75;;;5.87;67.07
68988;BME280;56038;46.080;11.116;2022-12-01T17:11:26;99495.91;;;5.89;67.37
68988;BME280;56038;46.080;11.116;2022-12-01T17:16:28;99495.97;;;5.86;67.58
68988;BME280;56038;46.080;11.116;2022-12-01T17:21:32;99504.06;;;5.69;68.19
68988;BME280;56038;46.080;11.116;2022-12-01T17:26:34;99509.09;;;5.75;68.07
68988;BME280;56038;46.080;11.116;2022-12-01T17:31:36;99513.44;;;5.75;68.10
68988;BME280;56038;46.080;11.116;2022-12-01T17:36:39;99509.16;;;5.72;68.46
68988;BME280;56038;46.080;11.116;2022-12-01T17:41:41;99515.28;;;5.68;68.62
68988;BME280;56038;46.080;11.116;2022-12-01T17:46:42;99517.84;;;5.68;68.09
68988;BME280;56038;46.080;11.116;2022-12-01T17:51:46;99517.09;;;5.63;68.88
68988;BME280;56038;46.080;11.116;2022-12-01T17:56:47;99515.44;;;5.59;68.77
68988;BME280;56038;46.080;11.116;2022-12-01T18:01:49;99526.66;;;5.59;69.16
68988;BME280;56038;46.080;11.116;2022-12-01T18:06:52;99524.13;;;5.56;69.24
68988;BME280;56038;46.080;11.116;2022-12-01T18:11:55;99527.75;;;5.46;69.68
68988;BME280;56038;46.080;11.116;2022-12-01T18:16:57;99533.84;;;5.44;69.16
68988;BME280;56038;46.080;11.116;2022-12-01T18:22:00;99536.78;;;5.22;69.62
68988;BME280;56038;46.080;11.116;2022-12-01T18:27:02;99537.50;;;5.32;69.54
68988;BME280;56038;46.080;11.116;2022-12-01T18:32:03;99554.75;;;5.31;70.34
68988;BME280;56038;46.080;11.116;2022-12-01T18:37:07;99548.66;;;5.35;69.90
68988;BME280;56038;46.080;11.116;2022-12-01T18:42:11;99551.41;;;5.26;71.67
68988;BME280;56038;46.080;11.116;2022-12-01T18:47:14;99547.13;;;5.24;71.65
68988;BME280;56038;46.080;11.116;2022-12-01T18:52:20;99554.88;;;5.25;71.37
68988;BME280;56038;46.080;11.116;2022-12-01T18:57:22;99556.53;;;5.29;71.77
68988;BME280;56038;46.080;11.116;2022-12-01T19:02:24;99558.19;;;5.33;71.60
68988;BME280;56038;46.080;11.116;2022-12-01T19:07:27;99560.78;;;5.32;70.83
68988;BME280;56038;46.080;11.116;2022-12-01T19:12:29;99570.25;;;5.34;71.55
68988;BME280;56038;46.080;11.116;2022-12-01T19:17:31;99577.13;;;5.35;71.62
68988;BME280;56038;46.080;11.116;2022-12-01T19:22:34;99575.41;;;5.36;71.86
68988;BME280;56038;46.080;11.116;2022-12-01T19:27:37;99576.25;;;5.38;71.53
68988;BME280;56038;46.080;11.116;2022-12-01T19:32:38;99586.63;;;5.35;72.15
68988;BME280;56038;46.080;11.116;2022-12-01T19:37:44;99574.53;;;5.35;71.85
68988;BME280;56038;46.080;11.116;2022-12-01T19:42:46;99574.63;;;5.31;72.27
68988;BME280;56038;46.080;11.116;2022-12-01T19:47:48;99587.66;;;5.26;72.53
68988;BME280;56038;46.080;11.116;2022-12-01T19:52:51;99585.13;;;5.23;72.67
68988;BME280;56038;46.080;11.116;2022-12-01T19:57:53;99587.09;;;5.06;74.02
68988;BME280;56038;46.080;11.116;2022-12-01T20:02:55;99582.81;;;5.02;74.55
68988;BME280;56038;46.080;11.116;2022-12-01T20:08:00;99591.25;;;5.16;73.13
68988;BME280;56038;46.080;11.116;2022-12-01T20:13:01;99591.19;;;5.22;73.09
68988;BME280;56038;46.080;11.116;2022-12-01T20:18:03;99579.91;;;5.25;72.60
68988;BME280;56038;46.080;11.116;2022-12-01T20:23:06;99587.16;;;5.01;74.42
68988;BME280;56038;46.080;11.116;2022-12-01T20:28:08;99589.66;;;5.09;73.45
68988;BME280;56038;46.080;11.116;2022-12-01T20:33:10;99588.63;;;5.18;73.51
68988;BME280;56038;46.080;11.116;2022-12-01T20:38:13;99598.13;;;5.17;72.98
68988;BME280;56038;46.080;11.116;2022-12-01T20:43:15;99595.50;;;5.22;72.57
68988;BME280;56038;46.080;11.116;2022-12-01T20:48:17;99610.91;;;5.29;72.64
68988;BME280;56038;46.080;11.116;2022-12-01T20:53:20;99608.44;;;5.22;73.35
68988;BME280;56038;46.080;11.116;2022-12-01T20:58:22;99612.72;;;5.24;73.08
68988;BME280;56038;46.080;11.116;2022-12-01T21:03:24;99613.50;;;5.29;73.27
68988;BME280;56038;46.080;11.116;2022-12-01T21:08:27;99606.84;;;5.13;74.09
68988;BME280;56038;46.080;11.116;2022-12-01T21:13:30;99606.78;;;5.16;73.66
68988;BME280;56038;46.080;11.116;2022-12-01T21:18:46;99609.28;;;5.24;72.73
68988;BME280;56038;46.080;11.116;2022-12-01T21:24:07;99608.44;;;5.20;73.46
68988;BME280;56038;46.080;11.116;2022-12-01T21:29:18;99614.72;;;5.04;74.94
68988;BME280;56038;46.080;11.116;2022-12-01T21:34:22;99608.59;;;5.11;74.41
68988;BME280;56038;46.080;11.116;2022-12-01T21:39:25;99610.47;;;5.00;74.68
68988;BME280;56038;46.080;11.116;2022-12-01T21:44:31;99617.22;;;5.11;73.21
68988;BME280;56038;46.080;11.116;2022-12-01T21:49:37;99618.38;;;4.91;74.84
68988;BME280;56038;46.080;11.116;2022-12-01T21:54:41;99626.88;;;4.99;74.03
68988;BME280;56038;46.080;11.116;2022-12-01T21:59:43;99617.97;;;5.18;72.83
68988;BME280;56038;46.080;11.116;2022-12-01T22:04:45;99625.66;;;5.24;73.05
68988;BME280;56038;46.080;11.116;2022-12-01T22:09:48;99624.00;;;5.22;73.47
68988;BME280;56038;46.080;11.116;2022-12-01T22:14:52;99617.94;;;5.20;73.25
68988;BME280;56038;46.080;11.116;2022-12-01T22:19:56;99623.06;;;5.26;72.40
68988;BME280;56038;46.080;11.116;2022-12-01T22:25:11;99624.91;;;5.16;74.49
68988;BME280;56038;46.080;11.116;2022-12-01T22:30:21;99624.88;;;5.19;73.26
68988;BME280;56038;46.080;11.116;2022-12-01T22:35:28;99622.31;;;5.16;73.72
68988;BME280;56038;46.080;11.116;2022-12-01T22:40:48;99632.63;;;5.22;73.00
68988;BME280;56038;46.080;11.116;2022-12-01T22:46:00;99631.72;;;5.25;73.38
68988;BME280;56038;46.080;11.116;2022-12-01T22:51:15;99625.66;;;5.26;73.23
68988;BME280;56038;46.080;11.116;2022-12-01T22:56:29;99619.66;;;5.22;73.57
68988;BME280;56038;46.080;11.116;2022-12-01T23:01:32;99623.13;;;5.20;73.01
68988;BME280;56038;46.080;11.116;2022-12-01T23:06:55;99615.38;;;5.21;73.65
68988;BME280;56038;46.080;11.116;2022-12-01T23:12:04;99617.06;;;5.22;72.90
68988;BME280;56038;46.080;11.116;2022-12-01T23:17:12;99614.47;;;5.24;73.62
68988;BME280;56038;46.080;11.116;2022-12-01T23:22:14;99621.34;;;5.25;73.05
68988;BME280;56038;46.080;11.116;2022-12-01T23:27:18;99617.09;;;5.21;73.35
68988;BME280;56038;46.080;11.116;2022-12-01T23:32:20;99620.63;;;5.15;74.24
68988;BME280;56038;46.080;11.116;2022-12-01T23:37:30;99622.25;;;5.22;73.90
68988;BME280;56038;46.080;11.116;2022-12-01T23:42:35;99616.22;;;5.22;73.80
68988;BME280;56038;46.080;11.116;2022-12-01T23:47:37;99614.47;;;5.22;73.56
68988;BME280;56038;46.080;11.116;2022-12-01T23:52:39;99612.13;;;5.04;75.23
68988;BME280;56038;46.080;11.116;2022-12-01T23:57:42;99606.09;;;5.03;74.61
